Time;durP1;ratioP1;P1;durP2;ratioP2;P2;SDS_P1;SDS_P2;PMS_P1;PMS_P2;Temp;Humidity;BMP_temperature;BMP_pressure;BME280_temperature;BME280_humidity;BME280_pressure;Samples;Min_cycle;Max_cycle;Signal;HPM_P1;HPM_P2
2022/07/07 00:02:19;;;;;;;3.15;2.60;;;;;;;23.75;59.73;99461.83;1725828;81;21526;-61
2022/07/07 00:04:47;;;;;;;8.55;2.77;;;;;;;23.75;59.73;99461.83;1715165;82;21554;-61
2022/07/07 00:07:13;;;;;;;2.65;2.33;;;;;;;23.75;59.71;99465.02;1729384;81;20946;-61
2022/07/07 00:09:42;;;;;;;6.08;3.12;;;;;;;23.77;59.69;99471.07;1721827;80;21806;-61
2022/07/07 00:12:09;;;;;;;;;;;;;;;23.83;59.86;99479.39;1669624;84;21163;-62
2022/07/07 00:14:37;;;;;;;3.55;2.52;;;;;;;23.71;59.58;99465.82;1657589;84;20607;-61
2022/07/07 00:17:03;;;;;;;2.40;2.30;;;;;;;23.71;59.58;99465.82;1659088;85;21058;-61
2022/07/07 00:19:31;;;;;;;2.60;2.40;;;;;;;23.64;59.67;99473.66;1718127;82;21580;-62
2022/07/07 00:21:58;;;;;;;2.85;2.22;;;;;;;23.64;59.67;99473.66;1719166;81;24586;-60
2022/07/07 00:24:24;;;;;;;5.62;2.35;;;;;;;23.58;59.92;99472.91;1717074;82;20994;-61
2022/07/07 00:26:51;;;;;;;2.45;2.20;;;;;;;23.34;59.87;99457.45;1726022;81;21387;-61
2022/07/07 00:29:18;;;;;;;4.10;2.20;;;;;;;23.34;59.87;99457.45;1731573;82;21637;-62
2022/07/07 00:31:45;;;;;;;7.17;2.02;;;;;;;23.29;59.89;99473.15;1726305;82;21467;-61
2022/07/07 00:34:12;;;;;;;9.58;1.95;;;;;;;23.23;60.12;99468.39;1720645;82;22013;-61
2022/07/07 00:36:39;;;;;;;2.02;1.70;;;;;;;23.15;59.83;99465.13;1721960;81;21513;-61
2022/07/07 00:39:06;;;;;;;;;;;;;;;23.18;60.20;99463.98;1725165;82;21545;-61
2022/07/07 00:41:33;;;;;;;2.55;1.70;;;;;;;23.14;59.40;99464.77;1725825;81;20414;-61
2022/07/07 00:44:00;;;;;;;1.72;1.62;;;;;;;22.98;59.25;99468.56;1732379;81;21499;-63
2022/07/07 00:46:31;;;;;;;6.10;1.50;;;;;;;22.84;59.51;99457.86;1721008;81;21794;-61
2022/07/07 00:48:57;;;;;;;4.12;1.22;;;;;;;22.78;59.60;99460.64;1727897;81;21101;-61
2022/07/07 00:51:24;;;;;;;2.27;0.93;;;;;;;22.75;59.28;99460.92;1732192;81;21492;-61
2022/07/07 00:53:50;;;;;;;2.75;0.95;;;;;;;22.71;58.79;99455.52;1723589;81;21475;-61
2022/07/07 00:56:17;;;;;;;2.27;0.80;;;;;;;22.69;58.58;99448.12;1724529;82;21460;-61
2022/07/07 00:58:43;;;;;;;0.70;0.70;;;;;;;22.61;57.81;99445.35;1718039;81;21633;-62
2022/07/07 01:01:12;;;;;;;1.07;0.80;;;;;;;22.61;57.81;99445.35;1726926;81;21170;-61
2022/07/07 01:03:38;;;;;;;5.97;0.90;;;;;;;22.60;57.45;99436.45;1728758;81;21538;-61
2022/07/07 01:06:05;;;;;;;1.17;0.60;;;;;;;22.36;56.89;99438.33;1723462;81;21572;-61
2022/07/07 01:08:32;;;;;;;2.45;0.75;;;;;;;22.36;56.89;99438.33;1726836;81;21538;-61
2022/07/07 01:11:00;;;;;;;8.08;0.80;;;;;;;22.34;57.36;99450.52;1733108;81;21848;-61
2022/07/07 01:13:26;;;;;;;2.30;0.93;;;;;;;22.26;57.41;99450.89;1732246;81;21542;-61
2022/07/07 01:15:54;;;;;;;3.55;0.80;;;;;;;22.15;57.60;99469.27;1727752;81;21424;-61
2022/07/07 01:18:20;;;;;;;4.58;0.60;;;;;;;22.16;57.61;99466.45;1735729;81;21562;-61
2022/07/07 01:20:47;;;;;;;3.25;0.80;;;;;;;22.06;57.64;99467.48;1722337;81;21553;-62
2022/07/07 01:23:15;;;;;;;4.78;0.90;;;;;;;22.09;57.89;99476.04;1726206;81;21793;-61
2022/07/07 01:25:42;;;;;;;2.47;0.80;;;;;;;22.00;57.86;99494.80;1730344;82;21478;-61
2022/07/07 01:28:09;;;;;;;7.08;1.22;;;;;;;21.90;58.05;99489.45;1723096;81;21073;-61
2022/07/07 01:30:36;;;;;;;1.30;0.70;;;;;;;21.91;58.28;99496.52;1733020;81;21529;-61
2022/07/07 01:33:04;;;;;;;1.72;0.72;;;;;;;21.97;58.10;99494.09;1727180;81;21565;-61
2022/07/07 01:35:31;;;;;;;5.70;0.95;;;;;;;22.02;57.79;99495.03;1724898;81;21804;-60
2022/07/07 01:37:59;;;;;;;3.02;0.98;;;;;;;21.94;58.06;99490.86;1722063;81;21577;-60
2022/07/07 01:40:26;;;;;;;1.12;0.50;;;;;;;21.94;57.84;99488.18;1728617;81;21566;-62
2022/07/07 01:42:53;;;;;;;1.65;0.80;;;;;;;21.92;57.96;99493.67;1726962;81;21490;-61
2022/07/07 01:45:20;;;;;;;4.00;0.80;;;;;;;21.97;57.78;99487.41;1727677;81;21573;-61
2022/07/07 01:47:47;;;;;;;;;;;;;;;21.92;58.01;99499.02;1731910;81;22000;-61
2022/07/07 01:50:14;;;;;;;3.50;0.80;;;;;;;21.96;57.96;99504.47;1723073;82;20420;-60
2022/07/07 01:52:41;;;;;;;2.10;0.50;;;;;;;22.00;57.60;99512.20;1709202;81;21504;-61
2022/07/07 01:55:08;;;;;;;1.52;0.90;;;;;;;21.89;57.00;99509.20;1720192;82;21582;-60
2022/07/07 01:57:35;;;;;;;2.10;0.80;;;;;;;21.74;57.05;99503.42;1724303;82;21160;-61
2022/07/07 02:00:02;;;;;;;3.58;0.85;;;;;;;21.73;57.03;99501.72;1717540;82;21894;-61
2022/07/07 02:02:31;;;;;;;2.52;0.47;;;;;;;21.74;57.56;99493.55;1716094;82;20943;-61
2022/07/07 02:04:57;;;;;;;3.70;0.78;;;;;;;21.56;57.47;99454.61;1712103;82;20951;-61
2022/07/07 02:07:24;;;;;;;4.72;0.98;;;;;;;21.83;57.10;99499.91;1727491;82;20994;-61
2022/07/07 02:09:51;;;;;;;2.30;0.70;;;;;;;21.74;56.92;99502.08;1711771;82;21602;-60
2022/07/07 02:12:18;;;;;;;1.35;0.62;;;;;;;21.68;56.82;99504.83;1714313;82;21882;-64
2022/07/07 02:14:44;;;;;;;2.33;0.80;;;;;;;21.67;56.87;99508.98;1728704;82;21384;-63
2022/07/07 02:17:12;;;;;;;3.98;1.07;;;;;;;21.67;56.83;99503.13;1718531;82;21444;-61
2022/07/07 02:19:39;;;;;;;1.75;0.60;;;;;;;21.71;56.88;99507.20;1716571;82;21080;-61
2022/07/07 02:22:06;;;;;;;1.50;0.68;;;;;;;21.68;56.82;99511.52;1723537;82;21517;-60
2022/07/07 02:24:33;;;;;;;2.55;0.55;;;;;;;21.67;56.83;99514.33;1720409;82;21837;-60
2022/07/07 02:26:59;;;;;;;3.45;0.80;;;;;;;21.66;56.81;99510.81;1727444;82;21464;-62
2022/07/07 02:29:26;;;;;;;2.60;0.78;;;;;;;21.65;56.75;99518.47;1713763;82;21464;-61
2022/07/07 02:31:52;;;;;;;2.65;0.88;;;;;;;21.64;56.76;99520.78;1720937;82;21580;-61
2022/07/07 02:34:20;;;;;;;1.05;0.80;;;;;;;21.70;56.89;99520.72;1719233;82;21587;-61
2022/07/07 02:36:47;;;;;;;4.05;0.80;;;;;;;21.69;56.80;99517.70;1722239;82;21818;-61
2022/07/07 02:39:13;;;;;;;3.52;0.80;;;;;;;21.69;56.63;99517.20;1721785;82;21416;-61
2022/07/07 02:41:41;;;;;;;3.30;0.70;;;;;;;21.71;56.59;99523.25;1722769;82;21538;-62
2022/07/07 02:44:07;;;;;;;1.90;0.80;;;;;;;21.75;56.69;99535.36;1727076;82;21065;-61
2022/07/07 02:46:34;;;;;;;3.58;1.00;;;;;;;21.80;56.72;99538.14;1725119;82;21065;-62
2022/07/07 02:49:01;;;;;;;1.05;0.60;;;;;;;21.64;56.88;99548.88;1726786;82;21955;-62
2022/07/07 02:51:28;;;;;;;;;;;;;;;21.65;56.65;99547.06;1719045;82;21404;-62
2022/07/07 02:53:55;;;;;;;;;;;;;;;21.64;56.79;99550.71;1720185;81;20461;-62
2022/07/07 02:56:23;;;;;;;2.15;0.70;;;;;;;21.65;56.76;99533.69;1723696;81;20457;-65
2022/07/07 02:58:50;;;;;;;6.70;0.80;;;;;;;21.68;56.68;99534.26;1723411;82;21595;-62
2022/07/07 03:01:16;;;;;;;1.87;0.53;;;;;;;21.67;56.59;99547.27;1714536;82;21408;-62
2022/07/07 03:03:43;;;;;;;0.90;0.60;;;;;;;21.70;56.32;99542.12;1719726;81;21207;-61
2022/07/07 03:06:11;;;;;;;0.70;0.50;;;;;;;21.71;56.38;99544.66;1718932;81;21571;-62
2022/07/07 03:08:39;;;;;;;2.70;1.00;;;;;;;21.76;56.37;99543.76;1714997;82;21649;-62
2022/07/07 03:11:06;;;;;;;3.90;0.70;;;;;;;21.84;56.47;99535.53;1722592;82;21503;-63
2022/07/07 03:13:33;;;;;;;0.40;0.40;;;;;;;21.93;56.32;99537.36;1715884;82;22045;-61
2022/07/07 03:15:59;;;;;;;1.42;0.60;;;;;;;21.98;56.10;99543.11;1710890;82;21823;-62
2022/07/07 03:18:27;;;;;;;2.10;0.98;;;;;;;21.95;56.08;99544.75;1721457;82;21038;-62
2022/07/07 03:20:54;;;;;;;3.08;0.45;;;;;;;21.97;56.06;99541.44;1724876;82;21087;-63
2022/07/07 03:23:21;;;;;;;2.42;0.50;;;;;;;22.00;56.24;99542.98;1719627;82;21042;-62
2022/07/07 03:25:48;;;;;;;2.27;0.60;;;;;;;22.07;56.23;99548.96;1715658;82;21864;-61
2022/07/07 03:28:15;;;;;;;0.50;0.50;;;;;;;22.25;56.09;99545.11;1721647;82;20967;-62
2022/07/07 03:30:41;;;;;;;4.47;0.90;;;;;;;22.25;56.09;99545.11;1720484;82;21495;-62
2022/07/07 03:33:08;;;;;;;0.88;0.80;;;;;;;22.23;55.84;99539.53;1723795;81;21583;-61
2022/07/07 03:35:35;;;;;;;2.02;1.00;;;;;;;22.13;55.77;99542.19;1706474;82;21078;-61
2022/07/07 03:38:01;;;;;;;1.05;0.80;;;;;;;22.07;55.93;99534.73;1727663;82;21812;-62
2022/07/07 03:40:28;;;;;;;1.70;1.25;;;;;;;22.11;56.00;99542.83;1722212;82;21136;-62
2022/07/07 03:42:55;;;;;;;2.55;0.70;;;;;;;22.10;55.78;99539.31;1711286;82;21416;-61
2022/07/07 03:45:23;;;;;;;3.22;0.90;;;;;;;22.18;55.31;99543.13;1708282;82;21498;-60
2022/07/07 03:47:50;;;;;;;0.80;0.80;;;;;;;22.16;55.16;99545.94;1724084;82;21506;-61
2022/07/07 03:50:16;;;;;;;3.83;1.52;;;;;;;22.01;55.32;99552.21;1720186;82;21783;-61
2022/07/07 03:52:43;;;;;;;2.40;0.70;;;;;;;21.94;55.83;99552.42;1717730;82;21444;-60
2022/07/07 03:55:10;;;;;;;3.72;0.70;;;;;;;22.01;55.81;99554.89;1726655;82;21538;-60
2022/07/07 03:57:38;;;;;;;0.72;0.53;;;;;;;22.04;56.06;99562.65;1722659;82;21516;-60
2022/07/07 04:00:06;;;;;;;0.60;0.60;;;;;;;22.11;55.98;99572.28;1721364;82;21663;-60
2022/07/07 04:02:35;;;;;;;0.78;0.75;;;;;;;22.14;55.75;99571.51;1726865;82;21819;-60
2022/07/07 04:05:02;;;;;;;2.47;0.93;;;;;;;22.19;55.52;99574.25;1720990;82;21614;-60
2022/07/07 04:07:29;;;;;;;3.08;0.53;;;;;;;22.25;55.42;99565.20;1716927;82;20998;-60
2022/07/07 04:09:56;;;;;;;1.00;0.78;;;;;;;22.28;55.27;99558.23;1723642;82;21606;-60
2022/07/07 04:12:22;;;;;;;3.60;0.75;;;;;;;22.35;55.19;99577.23;1722777;82;21507;-60
2022/07/07 04:14:49;;;;;;;4.10;0.75;;;;;;;22.33;54.90;99577.38;1720814;82;22029;-60
2022/07/07 04:17:16;;;;;;;2.87;0.90;;;;;;;22.42;54.54;99570.83;1710912;82;21480;-60
2022/07/07 04:19:43;;;;;;;3.17;0.80;;;;;;;22.25;54.90;99563.86;1711482;82;21447;-60
2022/07/07 04:22:09;;;;;;;3.55;0.90;;;;;;;22.16;55.04;99576.73;1715668;82;21488;-60
2022/07/07 04:24:36;;;;;;;3.83;0.85;;;;;;;22.26;55.03;99592.81;1715566;82;21558;-60
2022/07/07 04:27:05;;;;;;;0.85;0.80;;;;;;;22.35;54.92;99579.91;1714959;81;21799;-59
2022/07/07 04:29:32;;;;;;;2.15;0.80;;;;;;;22.44;54.74;99576.88;1719380;82;21428;-60
2022/07/07 04:31:58;;;;;;;1.70;0.80;;;;;;;22.42;54.81;99575.68;1718762;82;21534;-61
2022/07/07 04:34:25;;;;;;;1.15;0.90;;;;;;;22.40;54.69;99575.48;1723996;82;21419;-61
2022/07/07 04:36:52;;;;;;;1.40;0.62;;;;;;;22.45;54.95;99576.74;1718467;82;21414;-62
2022/07/07 04:39:19;;;;;;;2.60;0.72;;;;;;;22.47;54.66;99565.39;1713211;82;22009;-62
2022/07/07 04:41:46;;;;;;;1.80;0.80;;;;;;;22.50;54.75;99579.81;1722372;82;21554;-62
2022/07/07 04:44:13;;;;;;;3.35;0.80;;;;;;;22.39;54.61;99573.27;1716097;82;21587;-62
2022/07/07 04:46:40;;;;;;;1.82;1.02;;;;;;;22.45;54.83;99579.89;1708309;82;21455;-62
2022/07/07 04:49:06;;;;;;;1.35;1.02;;;;;;;22.39;54.62;99582.66;1722728;82;21563;-61
2022/07/07 04:51:34;;;;;;;0.95;0.90;;;;;;;22.37;54.46;99590.48;1720819;82;21511;-63
2022/07/07 04:54:01;;;;;;;2.25;1.00;;;;;;;22.43;54.79;99588.57;1731439;82;21554;-61
2022/07/07 04:56:28;;;;;;;2.20;0.93;;;;;;;22.53;54.55;99602.81;1725689;81;21624;-59
2022/07/07 04:58:55;;;;;;;1.67;0.88;;;;;;;22.59;54.63;99604.07;1721603;81;21127;-59
2022/07/07 05:01:22;;;;;;;1.70;0.77;;;;;;;22.62;54.53;99601.09;1717993;81;21525;-60
2022/07/07 05:03:48;;;;;;;2.37;0.80;;;;;;;22.60;54.50;99607.92;1721853;81;21805;-60
2022/07/07 05:06:15;;;;;;;2.37;1.02;;;;;;;22.54;54.55;99606.66;1729079;82;21605;-59
2022/07/07 05:08:42;;;;;;;1.10;0.75;;;;;;;22.64;54.43;99610.69;1729413;81;21515;-59
2022/07/07 05:11:09;;;;;;;2.10;1.20;;;;;;;22.66;54.26;99607.84;1720083;82;21033;-59
2022/07/07 05:13:35;;;;;;;4.15;0.90;;;;;;;22.64;54.12;99612.03;1732344;81;21578;-59
2022/07/07 05:16:03;;;;;;;1.73;0.97;;;;;;;22.61;54.02;99608.79;1731871;80;22055;-59
2022/07/07 05:18:30;;;;;;;3.37;1.02;;;;;;;22.70;53.84;99605.25;1729173;82;21013;-59
2022/07/07 05:20:57;;;;;;;2.75;0.80;;;;;;;22.61;54.08;99613.64;1728079;81;21664;-61
2022/07/07 05:23:28;;;;;;;6.60;0.98;;;;;;;22.82;53.87;99618.81;1719730;81;26824;-59
2022/07/07 05:25:55;;;;;;;1.92;0.93;;;;;;;22.84;53.38;99615.99;1730869;81;21412;-59
2022/07/07 05:28:22;;;;;;;1.87;0.95;;;;;;;22.77;53.34;99609.02;1717407;82;21825;-59
2022/07/07 05:30:49;;;;;;;0.95;0.85;;;;;;;22.73;53.29;99613.84;1723563;81;21507;-61
2022/07/07 05:33:16;;;;;;;2.17;0.95;;;;;;;22.80;53.02;99615.94;1728587;81;20963;-59
2022/07/07 05:35:43;;;;;;;0.98;0.70;;;;;;;22.82;53.28;99608.09;1732507;82;21546;-60
2022/07/07 05:38:10;;;;;;;1.85;0.78;;;;;;;22.91;53.31;99609.06;1727824;81;21628;-59
2022/07/07 05:40:37;;;;;;;1.10;0.78;;;;;;;23.03;53.28;99607.05;1691387;82;21798;-59
2022/07/07 05:43:03;;;;;;;1.32;1.00;;;;;;;23.19;53.32;99611.33;1732584;80;21831;-60
2022/07/07 05:45:30;;;;;;;5.03;1.57;;;;;;;23.19;53.04;99609.98;1722868;81;21510;-59
2022/07/07 05:47:56;;;;;;;1.40;1.30;;;;;;;23.16;52.76;99612.95;1717492;82;21392;-61
2022/07/07 05:50:24;;;;;;;1.95;1.50;;;;;;;23.18;53.01;99608.78;1725102;82;21534;-60
2022/07/07 05:52:52;;;;;;;1.30;1.20;;;;;;;23.25;53.02;99621.45;1719205;82;21845;-60
2022/07/07 05:55:19;;;;;;;1.30;1.20;;;;;;;23.43;52.76;99622.00;1727358;82;21435;-60
2022/07/07 05:57:45;;;;;;;4.25;1.50;;;;;;;23.43;51.85;99617.98;1708039;82;21046;-61
2022/07/07 06:00:13;;;;;;;1.40;1.20;;;;;;;23.52;51.63;99625.13;1720548;82;21636;-60
2022/07/07 06:02:40;;;;;;;1.40;1.30;;;;;;;23.57;51.59;99626.88;1712721;82;21530;-60
2022/07/07 06:05:08;;;;;;;3.15;1.37;;;;;;;23.62;51.61;99629.97;1719298;82;21834;-59
2022/07/07 06:07:36;;;;;;;1.32;1.22;;;;;;;23.60;51.89;99644.03;1710990;82;21423;-58
2022/07/07 06:10:03;;;;;;;2.62;1.10;;;;;;;23.76;51.47;99636.66;1726443;82;21703;-60
2022/07/07 06:12:30;;;;;;;2.52;1.50;;;;;;;23.77;51.24;99634.33;1718549;82;27048;-61
2022/07/07 06:14:57;;;;;;;1.30;1.22;;;;;;;23.80;51.19;99638.07;1721855;81;21578;-60
2022/07/07 06:17:23;;;;;;;3.67;2.50;;;;;;;24.01;51.36;99636.44;1718249;81;21756;-59
2022/07/07 06:19:50;;;;;;;2.67;1.50;;;;;;;24.10;51.17;99646.78;1726427;81;21064;-59
2022/07/07 06:22:16;;;;;;;2.05;1.75;;;;;;;24.10;51.17;99646.78;1724331;81;21538;-59
2022/07/07 06:24:43;;;;;;;3.20;1.70;;;;;;;24.16;50.82;99651.53;1723338;81;21566;-59
2022/07/07 06:27:09;;;;;;;1.92;1.82;;;;;;;24.08;50.58;99645.58;1722310;82;21530;-60
2022/07/07 06:29:36;;;;;;;4.00;1.90;;;;;;;24.08;50.58;99645.58;1718472;82;21893;-60
2022/07/07 06:32:04;;;;;;;2.10;1.90;;;;;;;24.03;50.24;99655.92;1722844;81;20966;-60
2022/07/07 06:34:30;;;;;;;3.02;1.92;;;;;;;24.00;50.05;99659.44;1719962;82;21037;-59
2022/07/07 06:36:57;;;;;;;6.33;1.57;;;;;;;23.98;50.26;99654.22;1684712;83;21586;-60
2022/07/07 06:39:24;;;;;;;1.62;1.52;;;;;;;24.03;50.33;99653.24;1708245;82;21617;-60
2022/07/07 06:41:51;;;;;;;1.40;1.20;;;;;;;24.17;50.33;99653.74;1685527;83;22198;-59
2022/07/07 06:44:18;;;;;;;2.33;1.60;;;;;;;24.21;49.83;99655.95;1722366;82;21622;-59
2022/07/07 06:46:44;;;;;;;4.05;1.30;;;;;;;24.24;49.84;99653.45;1728394;82;21511;-59
2022/07/07 06:49:12;;;;;;;1.82;1.47;;;;;;;24.27;49.66;99655.33;1715789;82;21474;-59
2022/07/07 06:51:39;;;;;;;1.77;1.20;;;;;;;24.32;49.43;99649.98;1719208;82;21522;-60
2022/07/07 06:54:07;;;;;;;2.65;1.45;;;;;;;24.32;49.43;99649.98;1722779;82;21532;-60
2022/07/07 06:56:34;;;;;;;2.02;1.10;;;;;;;24.35;49.42;99652.38;1723344;82;21537;-61
2022/07/07 06:59:00;;;;;;;2.90;1.35;;;;;;;24.44;49.24;99657.66;1720920;82;21511;-60
2022/07/07 07:01:27;;;;;;;4.10;1.25;;;;;;;24.51;49.00;99647.66;1669083;84;21500;-60
2022/07/07 07:03:53;;;;;;;1.32;1.20;;;;;;;24.54;48.80;99639.30;1715112;82;21432;-61
2022/07/07 07:06:20;;;;;;;2.55;1.32;;;;;;;24.58;49.01;99641.54;1714506;82;21866;-60
2022/07/07 07:08:48;;;;;;;3.47;1.27;;;;;;;24.85;48.42;99639.20;1683202;83;21374;-60
2022/07/07 07:11:15;;;;;;;2.35;1.17;;;;;;;24.85;48.42;99639.20;1652224;85;20991;-61
2022/07/07 07:13:47;;;;;;;1.20;1.10;;;;;;;25.00;48.96;99642.66;1722319;81;21519;-61
2022/07/07 07:16:11;;;;;;;1.52;1.42;;;;;;;25.10;48.13;99643.38;1715957;80;21589;-60
2022/07/07 07:18:38;;;;;;;1.07;1.02;;;;;;;25.18;47.95;99637.20;1715289;82;21906;-61
2022/07/07 07:21:05;;;;;;;2.45;1.17;;;;;;;25.16;47.73;99646.77;1719922;82;21569;-61
2022/07/07 07:23:31;;;;;;;1.02;0.90;;;;;;;25.21;48.01;99648.49;1719178;82;21471;-60
2022/07/07 07:26:09;;;;;;;1.20;1.10;;;;;;;25.33;47.97;99649.59;1723120;82;21488;-61
2022/07/07 07:28:38;;;;;;;1.52;1.02;;;;;;;25.45;47.31;99640.24;1725457;82;21077;-60
2022/07/07 07:31:05;;;;;;;1.92;1.27;;;;;;;25.45;47.31;99640.24;1679103;82;23413;-61
2022/07/07 07:33:31;;;;;;;4.27;1.07;;;;;;;25.50;46.79;99641.09;1707565;81;21437;-61
2022/07/07 07:35:58;;;;;;;0.98;0.95;;;;;;;25.83;47.57;99651.48;1721994;82;21416;-61
2022/07/07 07:38:25;;;;;;;2.02;1.20;;;;;;;25.83;47.57;99651.48;1716066;81;21468;-61
2022/07/07 07:40:52;;;;;;;3.92;1.20;;;;;;;25.93;46.58;99647.31;1720898;82;21574;-60
2022/07/07 07:43:18;;;;;;;1.07;1.07;;;;;;;25.98;46.14;99639.08;1716303;81;21635;-61
2022/07/07 07:45:45;;;;;;;2.95;1.00;;;;;;;25.99;45.84;99640.78;1722575;82;21452;-60
2022/07/07 07:48:12;;;;;;;1.22;1.12;;;;;;;26.04;45.84;99642.97;1727490;82;22149;-61
2022/07/07 07:50:39;;;;;;;2.80;1.35;;;;;;;26.07;45.93;99645.82;1709484;81;21610;-60
2022/07/07 07:53:06;;;;;;;2.62;1.40;;;;;;;26.07;45.93;99645.82;1659309;83;21579;-60
2022/07/07 07:55:35;;;;;;;2.27;1.07;;;;;;;26.07;45.54;99649.38;1715514;82;21867;-61
2022/07/07 07:58:01;;;;;;;1.25;1.15;;;;;;;26.09;45.46;99650.05;1715850;82;20971;-61
2022/07/07 08:00:28;;;;;;;5.55;1.20;;;;;;;26.12;45.61;99647.01;1718356;82;21424;-60
2022/07/07 08:03:47;;;;;;;0.82;0.80;;;;;;;24.71;51.43;99655.05;1855501;75;22968;-60
2022/07/07 08:06:14;;;;;;;5.62;0.98;;;;;;;26.32;45.72;99648.89;1842112;75;21445;-61
2022/07/07 08:08:41;;;;;;;1.07;0.97;;;;;;;26.32;45.72;99648.89;1831724;75;21560;-60
2022/07/07 08:11:07;;;;;;;2.05;1.10;;;;;;;26.54;45.32;99640.66;1827033;75;21835;-62
2022/07/07 08:13:34;;;;;;;1.15;0.88;;;;;;;26.77;44.83;99639.48;1845683;75;21497;-60
2022/07/07 08:16:03;;;;;;;3.25;0.98;;;;;;;26.97;45.03;99641.31;1828439;75;21506;-60
2022/07/07 08:18:30;;;;;;;1.70;0.90;;;;;;;27.21;44.25;99631.97;1828782;75;21787;-60
2022/07/07 08:20:57;;;;;;;1.20;1.00;;;;;;;27.32;44.19;99637.03;1833927;75;21909;-61
2022/07/07 08:23:25;;;;;;;1.17;1.10;;;;;;;27.37;43.38;99636.00;1829028;75;21648;-62
2022/07/07 08:25:51;;;;;;;2.55;1.12;;;;;;;27.39;42.97;99635.31;1832846;75;21066;-62
2022/07/07 08:28:18;;;;;;;2.02;1.20;;;;;;;27.48;43.18;99646.91;1842423;75;21506;-63
2022/07/07 08:30:45;;;;;;;1.55;1.00;;;;;;;27.54;43.12;99651.63;1834836;75;21481;-61
2022/07/07 08:33:12;;;;;;;1.10;1.00;;;;;;;27.56;43.26;99652.29;1828011;75;21909;-63
2022/07/07 08:35:39;;;;;;;;;;;;;;;27.57;43.04;99646.69;1839893;75;21545;-62
2022/07/07 08:38:06;;;;;;;1.65;0.82;;;;;;;27.60;42.22;99646.87;1832266;75;20463;-61
2022/07/07 08:40:33;;;;;;;1.92;1.05;;;;;;;27.48;42.70;99646.91;1843839;75;21079;-62
2022/07/07 08:43:00;;;;;;;1.30;1.05;;;;;;;27.40;42.72;99646.43;1826855;75;21653;-62
2022/07/07 08:48:14;;;;;;;4.05;1.10;;;;;;;27.48;43.89;99649.61;1841175;75;23334;-64
2022/07/07 08:50:40;;;;;;;2.63;1.33;;;;;;;27.46;43.88;99656.52;1811696;77;21052;-60
2022/07/07 08:53:08;;;;;;;2.17;1.17;;;;;;;27.64;43.18;99657.64;1810842;77;21804;-61
2022/07/07 08:55:35;;;;;;;2.75;1.10;;;;;;;27.69;43.16;99665.20;1803756;77;21478;-63
2022/07/07 08:58:02;;;;;;;2.47;1.27;;;;;;;27.65;43.54;99657.13;1807821;77;21569;-63
2022/07/07 09:00:28;;;;;;;2.35;1.45;;;;;;;27.68;43.60;99659.48;1816003;77;21659;-62
2022/07/07 09:02:58;;;;;;;2.40;1.30;;;;;;;27.82;43.27;99663.29;1809651;77;21383;-62
2022/07/07 09:05:27;;;;;;;1.27;1.17;;;;;;;27.80;42.92;99666.68;1803797;77;21877;-62
2022/07/07 09:07:53;;;;;;;4.30;1.02;;;;;;;27.83;42.36;99671.22;1805877;77;21495;-62
2022/07/07 09:10:36;;;;;;;1.47;1.10;;;;;;;27.86;41.92;99673.58;1764593;78;27125;-62
2022/07/07 09:13:07;;;;;;;1.12;1.02;;;;;;;27.95;42.36;99671.69;1762572;78;21521;-61
2022/07/07 09:15:40;;;;;;;4.53;1.02;;;;;;;28.02;41.98;99667.78;1712376;80;21013;-61
2022/07/07 09:18:07;;;;;;;3.08;0.98;;;;;;;28.10;41.82;99675.30;1765586;80;21548;-63
2022/07/07 09:20:36;;;;;;;3.72;1.00;;;;;;;28.05;41.57;99675.02;1765185;78;21528;-63
2022/07/07 09:23:03;;;;;;;1.07;0.93;;;;;;;28.08;41.46;99671.11;1766902;79;21571;-62
2022/07/07 09:25:30;;;;;;;1.30;1.20;;;;;;;28.13;41.47;99677.66;1763986;80;21446;-63
2022/07/07 09:28:04;;;;;;;6.07;1.10;;;;;;;28.21;41.76;99678.12;1757253;78;21572;-63
2022/07/07 09:30:49;;;;;;;4.55;1.10;;;;;;;28.30;41.70;99674.86;1762732;78;21866;-63
2022/07/07 09:33:23;;;;;;;0.78;0.78;;;;;;;28.52;41.72;99675.92;1773223;79;21406;-63
2022/07/07 09:38:39;;;;;;;1.30;1.10;;;;;;;28.69;41.32;99673.92;1768305;80;21478;-63
2022/07/07 09:41:10;;;;;;;4.67;1.10;;;;;;;28.78;41.06;99677.38;1772907;78;21518;-64
2022/07/07 09:43:49;;;;;;;1.40;1.12;;;;;;;28.75;40.77;99675.89;1768579;78;21755;-63
2022/07/07 09:46:22;;;;;;;3.27;0.98;;;;;;;28.71;40.85;99674.58;1770132;78;21944;-63
2022/07/07 09:48:53;;;;;;;1.50;1.12;;;;;;;28.76;40.76;99678.07;1771652;78;21397;-62
2022/07/07 09:51:32;;;;;;;3.87;1.10;;;;;;;28.82;40.63;99675.48;1764483;78;21580;-64
2022/07/07 09:54:08;;;;;;;1.98;1.10;;;;;;;28.64;41.12;99674.97;1776430;78;21862;-64
2022/07/07 09:56:43;;;;;;;1.65;1.27;;;;;;;28.60;41.19;99673.66;1777858;78;22231;-62
2022/07/07 09:59:16;;;;;;;1.35;1.25;;;;;;;28.49;41.13;99669.48;1764280;78;21553;-62
2022/07/07 10:01:45;;;;;;;2.90;1.17;;;;;;;28.40;40.93;99679.50;1764004;78;21473;-63
2022/07/07 10:04:14;;;;;;;1.05;0.95;;;;;;;28.43;40.93;99676.97;1779438;78;21435;-60
2022/07/07 10:06:43;;;;;;;1.22;0.90;;;;;;;28.46;40.97;99669.34;1784761;78;21033;-64
2022/07/07 10:09:17;;;;;;;1.80;1.10;;;;;;;28.46;41.13;99669.83;1774902;78;21858;-62
2022/07/07 10:11:48;;;;;;;0.93;0.88;;;;;;;28.55;40.95;99678.24;1770390;78;21516;-60
2022/07/07 10:14:21;;;;;;;1.25;0.85;;;;;;;28.61;40.84;99674.80;1772783;78;21587;-59
2022/07/07 10:16:52;;;;;;;5.72;1.17;;;;;;;28.77;40.98;99665.72;1763544;79;21455;-62
2022/07/07 10:19:24;;;;;;;1.25;1.17;;;;;;;28.86;39.68;99663.27;1758750;79;21518;-62
2022/07/07 10:21:56;;;;;;;1.62;1.00;;;;;;;28.81;39.76;99671.09;1752132;79;21782;-62
2022/07/07 10:24:26;;;;;;;1.37;0.98;;;;;;;28.73;40.24;99665.77;1754559;79;21443;-63
2022/07/07 10:26:57;;;;;;;3.42;1.10;;;;;;;28.79;40.15;99670.43;1751330;79;21509;-63
2022/07/07 10:29:42;;;;;;;2.58;0.93;;;;;;;28.95;40.76;99674.83;1746012;79;21494;-63
2022/07/07 10:32:13;;;;;;;1.90;1.07;;;;;;;29.04;40.03;99672.38;1763367;79;21550;-63
2022/07/07 10:34:52;;;;;;;0.95;0.95;;;;;;;29.24;39.53;99670.53;1757339;79;21748;-65
2022/07/07 10:37:21;;;;;;;3.50;1.05;;;;;;;29.38;38.78;99663.42;1765618;79;21476;-66
2022/07/07 10:39:50;;;;;;;;;;;;;;;29.27;38.42;99656.59;1764718;79;21499;-62
2022/07/07 10:42:22;;;;;;;3.05;1.17;;;;;;;29.27;39.16;99657.95;1759171;79;20430;-63
2022/07/07 10:44:52;;;;;;;2.37;1.00;;;;;;;29.38;39.58;99653.42;1766114;79;20951;-64
2022/07/07 10:47:27;;;;;;;1.30;1.20;;;;;;;29.51;39.13;99654.95;1761820;79;21731;-64
2022/07/07 10:49:55;;;;;;;1.45;1.00;;;;;;;29.70;38.92;99658.97;1764085;79;21518;-64
2022/07/07 10:52:25;;;;;;;;;;;;;;;29.78;38.21;99658.55;1763232;79;21507;-64
2022/07/07 10:54:55;;;;;;;2.83;1.00;;;;;;;29.72;38.59;99656.05;1765662;79;20411;-61
2022/07/07 10:57:23;;;;;;;0.90;0.80;;;;;;;29.84;38.07;99659.16;1761309;79;21522;-61
2022/07/07 11:00:08;;;;;;;3.90;0.95;;;;;;;29.84;37.48;99668.12;1770631;79;22085;-63
2022/07/07 11:02:48;;;;;;;2.27;1.05;;;;;;;29.83;37.49;99670.48;1763086;79;20993;-62
2022/07/07 11:05:21;;;;;;;2.60;1.00;;;;;;;29.79;37.34;99678.68;1738780;80;21444;-62
2022/07/07 11:08:03;;;;;;;2.47;0.93;;;;;;;29.63;37.08;99674.30;1750826;79;21471;-62
2022/07/07 11:10:47;;;;;;;0.70;0.70;;;;;;;29.63;37.64;99686.98;1762885;79;21463;-63
2022/07/07 11:13:35;;;;;;;2.05;1.35;;;;;;;29.72;37.76;99687.20;1765264;80;22099;-63
2022/07/07 11:16:21;;;;;;;0.80;0.80;;;;;;;29.80;37.31;99685.80;1758343;80;21545;-62
2022/07/07 11:18:59;;;;;;;4.33;1.05;;;;;;;30.09;36.84;99675.38;1747452;80;21461;-62
2022/07/07 11:21:43;;;;;;;1.50;1.00;;;;;;;30.21;36.94;99679.77;1758947;79;21451;-63
2022/07/07 11:24:22;;;;;;;0.72;0.70;;;;;;;30.43;36.31;99673.05;1750038;79;21541;-63
2022/07/07 11:27:00;;;;;;;3.65;0.85;;;;;;;30.60;36.83;99669.55;1763881;79;21522;-63
2022/07/07 11:29:28;;;;;;;1.25;0.80;;;;;;;30.77;36.72;99676.37;1760404;79;22532;-64
2022/07/07 11:32:07;;;;;;;2.62;0.90;;;;;;;30.81;36.17;99678.17;1755799;79;21518;-63
2022/07/07 11:34:50;;;;;;;2.33;0.70;;;;;;;30.75;35.41;99674.89;1757408;79;21482;-63
2022/07/07 11:37:26;;;;;;;1.55;1.05;;;;;;;30.66;35.57;99680.97;1748714;79;21414;-62
2022/07/07 11:39:55;;;;;;;1.72;0.98;;;;;;;30.56;35.24;99677.77;1760376;79;21775;-62
2022/07/07 11:42:22;;;;;;;1.07;0.90;;;;;;;30.52;35.56;99673.23;1757612;79;20994;-63
2022/07/07 11:44:49;;;;;;;1.57;0.82;;;;;;;30.43;35.64;99685.25;1765775;79;21382;-62
2022/07/07 11:47:16;;;;;;;1.75;1.00;;;;;;;30.24;35.60;99680.75;1763834;79;21498;-63